sensor_id;sensor_type;location;lat;lon;timestamp;P1;durP1;ratioP1;P2;durP2;ratioP2
10617;SDS011;5356;43.526;26.534;2023-02-01T00:01:38;60.13;;;25.77;;
10617;SDS011;5356;43.526;26.534;2023-02-01T00:04:03;60.60;;;24.65;;
10617;SDS011;5356;43.526;26.534;2023-02-01T00:06:29;57.03;;;27.45;;
10617;SDS011;5356;43.526;26.534;2023-02-01T00:08:55;49.20;;;21.85;;
10617;SDS011;5356;43.526;26.534;2023-02-01T00:11:21;41.78;;;21.42;;
10617;SDS011;5356;43.526;26.534;2023-02-01T00:13:47;40.97;;;21.92;;
10617;SDS011;5356;43.526;26.534;2023-02-01T00:16:17;49.45;;;21.13;;
10617;SDS011;5356;43.526;26.534;2023-02-01T00:18:49;43.17;;;22.15;;
10617;SDS011;5356;43.526;26.534;2023-02-01T00:21:16;46.50;;;22.38;;
10617;SDS011;5356;43.526;26.534;2023-02-01T00:23:43;45.53;;;22.50;;
10617;SDS011;5356;43.526;26.534;2023-02-01T00:26:51;48.67;;;21.25;;
10617;SDS011;5356;43.526;26.534;2023-02-01T00:29:03;45.60;;;23.67;;
10617;SDS011;5356;43.526;26.534;2023-02-01T00:31:30;45.42;;;22.05;;
10617;SDS011;5356;43.526;26.534;2023-02-01T00:33:55;46.92;;;22.75;;
10617;SDS011;5356;43.526;26.534;2023-02-01T00:36:21;49.08;;;22.95;;
10617;SDS011;5356;43.526;26.534;2023-02-01T00:38:47;50.08;;;24.98;;
10617;SDS011;5356;43.526;26.534;2023-02-01T00:41:13;43.85;;;23.00;;
10617;SDS011;5356;43.526;26.534;2023-02-01T00:43:43;43.35;;;21.23;;
10617;SDS011;5356;43.526;26.534;2023-02-01T00:46:09;47.97;;;23.63;;
10617;SDS011;5356;43.526;26.534;2023-02-01T00:48:36;53.80;;;26.20;;
10617;SDS011;5356;43.526;26.534;2023-02-01T00:51:21;59.03;;;28.63;;
10617;SDS011;5356;43.526;26.534;2023-02-01T00:53:49;57.35;;;27.58;;
10617;SDS011;5356;43.526;26.534;2023-02-01T00:56:15;61.20;;;27.25;;
10617;SDS011;5356;43.526;26.534;2023-02-01T00:58:41;56.40;;;27.63;;
10617;SDS011;5356;43.526;26.534;2023-02-01T01:01:08;59.83;;;27.55;;
10617;SDS011;5356;43.526;26.534;2023-02-01T01:03:37;47.97;;;23.83;;
10617;SDS011;5356;43.526;26.534;2023-02-01T01:06:06;53.75;;;24.63;;
10617;SDS011;5356;43.526;26.534;2023-02-01T01:08:35;52.90;;;25.88;;
10617;SDS011;5356;43.526;26.534;2023-02-01T01:11:05;49.15;;;22.85;;
10617;SDS011;5356;43.526;26.534;2023-02-01T01:13:33;38.65;;;19.88;;
10617;SDS011;5356;43.526;26.534;2023-02-01T01:16:02;40.88;;;19.17;;
10617;SDS011;5356;43.526;26.534;2023-02-01T01:18:29;38.88;;;19.77;;
10617;SDS011;5356;43.526;26.534;2023-02-01T01:20:56;38.10;;;19.17;;
10617;SDS011;5356;43.526;26.534;2023-02-01T01:23:22;40.65;;;19.58;;
10617;SDS011;5356;43.526;26.534;2023-02-01T01:25:47;34.28;;;17.52;;
10617;SDS011;5356;43.526;26.534;2023-02-01T01:28:13;30.75;;;15.80;;
10617;SDS011;5356;43.526;26.534;2023-02-01T01:30:38;33.05;;;17.05;;
10617;SDS011;5356;43.526;26.534;2023-02-01T01:33:04;31.77;;;14.80;;
10617;SDS011;5356;43.526;26.534;2023-02-01T01:35:30;25.35;;;13.23;;
10617;SDS011;5356;43.526;26.534;2023-02-01T01:37:56;22.05;;;11.50;;
10617;SDS011;5356;43.526;26.534;2023-02-01T01:40:22;19.08;;;11.13;;
10617;SDS011;5356;43.526;26.534;2023-02-01T01:42:48;19.73;;;10.98;;
10617;SDS011;5356;43.526;26.534;2023-02-01T01:45:20;16.77;;;7.85;;
10617;SDS011;5356;43.526;26.534;2023-02-01T01:47:47;15.80;;;9.35;;
10617;SDS011;5356;43.526;26.534;2023-02-01T01:50:18;17.38;;;8.45;;
10617;SDS011;5356;43.526;26.534;2023-02-01T01:52:49;13.02;;;7.00;;
10617;SDS011;5356;43.526;26.534;2023-02-01T01:55:20;14.45;;;8.07;;
10617;SDS011;5356;43.526;26.534;2023-02-01T01:57:59;13.00;;;8.15;;
10617;SDS011;5356;43.526;26.534;2023-02-01T02:00:30;17.40;;;8.27;;
10617;SDS011;5356;43.526;26.534;2023-02-01T02:03:00;15.77;;;9.10;;
10617;SDS011;5356;43.526;26.534;2023-02-01T02:05:33;15.15;;;8.85;;
10617;SDS011;5356;43.526;26.534;2023-02-01T02:07:59;19.73;;;10.38;;
10617;SDS011;5356;43.526;26.534;2023-02-01T02:10:27;17.15;;;8.43;;
10617;SDS011;5356;43.526;26.534;2023-02-01T02:13:11;12.50;;;7.63;;
10617;SDS011;5356;43.526;26.534;2023-02-01T02:15:41;16.60;;;6.97;;
10617;SDS011;5356;43.526;26.534;2023-02-01T02:18:22;16.02;;;7.25;;
10617;SDS011;5356;43.526;26.534;2023-02-01T02:38:22;8.52;;;5.65;;
10617;SDS011;5356;43.526;26.534;2023-02-01T02:43:22;11.95;;;5.10;;
10617;SDS011;5356;43.526;26.534;2023-02-01T02:46:16;9.32;;;5.32;;
10617;SDS011;5356;43.526;26.534;2023-02-01T02:49:12;6.03;;;3.75;;
10617;SDS011;5356;43.526;26.534;2023-02-01T02:51:49;8.57;;;4.60;;
10617;SDS011;5356;43.526;26.534;2023-02-01T02:54:37;9.85;;;4.43;;
10617;SDS011;5356;43.526;26.534;2023-02-01T02:57:18;8.40;;;5.10;;
10617;SDS011;5356;43.526;26.534;2023-02-01T03:00:24;9.40;;;4.68;;
10617;SDS011;5356;43.526;26.534;2023-02-01T03:03:11;8.32;;;3.92;;
10617;SDS011;5356;43.526;26.534;2023-02-01T03:05:55;10.13;;;4.40;;
10617;SDS011;5356;43.526;26.534;2023-02-01T03:08:22;9.45;;;4.43;;
10617;SDS011;5356;43.526;26.534;2023-02-01T03:10:53;9.52;;;4.45;;
10617;SDS011;5356;43.526;26.534;2023-02-01T03:16:06;7.30;;;4.35;;
10617;SDS011;5356;43.526;26.534;2023-02-01T03:18:44;7.65;;;4.80;;
10617;SDS011;5356;43.526;26.534;2023-02-01T03:21:23;8.60;;;5.07;;
10617;SDS011;5356;43.526;26.534;2023-02-01T03:23:54;8.13;;;4.05;;
10617;SDS011;5356;43.526;26.534;2023-02-01T03:26:25;7.80;;;4.60;;
10617;SDS011;5356;43.526;26.534;2023-02-01T03:29:02;9.75;;;4.65;;
10617;SDS011;5356;43.526;26.534;2023-02-01T03:31:35;9.13;;;4.68;;
10617;SDS011;5356;43.526;26.534;2023-02-01T03:34:00;9.07;;;4.47;;
10617;SDS011;5356;43.526;26.534;2023-02-01T03:36:29;17.15;;;7.32;;
10617;SDS011;5356;43.526;26.534;2023-02-01T03:41:28;9.32;;;4.35;;
10617;SDS011;5356;43.526;26.534;2023-02-01T03:44:13;8.32;;;4.75;;
10617;SDS011;5356;43.526;26.534;2023-02-01T03:49:24;9.77;;;5.13;;
10617;SDS011;5356;43.526;26.534;2023-02-01T03:51:58;5.38;;;3.80;;
10617;SDS011;5356;43.526;26.534;2023-02-01T03:54:25;7.90;;;3.83;;
10617;SDS011;5356;43.526;26.534;2023-02-01T03:56:54;7.47;;;4.45;;
10617;SDS011;5356;43.526;26.534;2023-02-01T03:59:23;8.82;;;4.95;;
10617;SDS011;5356;43.526;26.534;2023-02-01T04:01:49;8.85;;;4.93;;
10617;SDS011;5356;43.526;26.534;2023-02-01T04:04:14;8.80;;;4.90;;
10617;SDS011;5356;43.526;26.534;2023-02-01T04:06:48;9.48;;;4.50;;
10617;SDS011;5356;43.526;26.534;2023-02-01T04:09:15;9.07;;;5.03;;
10617;SDS011;5356;43.526;26.534;2023-02-01T04:11:40;10.40;;;5.85;;
10617;SDS011;5356;43.526;26.534;2023-02-01T04:14:06;12.43;;;6.80;;
10617;SDS011;5356;43.526;26.534;2023-02-01T04:16:32;23.08;;;9.00;;
10617;SDS011;5356;43.526;26.534;2023-02-01T04:18:58;20.20;;;10.13;;
10617;SDS011;5356;43.526;26.534;2023-02-01T04:21:24;16.63;;;9.15;;
10617;SDS011;5356;43.526;26.534;2023-02-01T04:23:50;12.43;;;5.97;;
10617;SDS011;5356;43.526;26.534;2023-02-01T04:26:16;9.13;;;6.03;;
10617;SDS011;5356;43.526;26.534;2023-02-01T04:28:42;9.73;;;6.18;;
10617;SDS011;5356;43.526;26.534;2023-02-01T04:31:07;8.57;;;4.57;;
10617;SDS011;5356;43.526;26.534;2023-02-01T04:33:33;15.77;;;5.97;;
10617;SDS011;5356;43.526;26.534;2023-02-01T04:35:59;12.48;;;6.53;;
10617;SDS011;5356;43.526;26.534;2023-02-01T04:38:24;9.43;;;5.38;;
10617;SDS011;5356;43.526;26.534;2023-02-01T04:40:51;9.52;;;5.38;;
10617;SDS011;5356;43.526;26.534;2023-02-01T04:43:17;10.25;;;5.97;;
10617;SDS011;5356;43.526;26.534;2023-02-01T04:45:46;9.32;;;5.75;;
10617;SDS011;5356;43.526;26.534;2023-02-01T04:48:15;10.45;;;5.68;;
10617;SDS011;5356;43.526;26.534;2023-02-01T04:50:44;12.63;;;5.78;;
10617;SDS011;5356;43.526;26.534;2023-02-01T04:53:15;9.00;;;5.25;;
10617;SDS011;5356;43.526;26.534;2023-02-01T04:55:41;11.75;;;6.05;;
10617;SDS011;5356;43.526;26.534;2023-02-01T04:58:07;10.68;;;6.03;;
10617;SDS011;5356;43.526;26.534;2023-02-01T05:00:33;12.10;;;6.90;;
10617;SDS011;5356;43.526;26.534;2023-02-01T05:02:58;14.27;;;7.07;;
10617;SDS011;5356;43.526;26.534;2023-02-01T05:05:24;13.00;;;7.85;;
10617;SDS011;5356;43.526;26.534;2023-02-01T05:07:50;9.65;;;6.97;;
10617;SDS011;5356;43.526;26.534;2023-02-01T05:10:15;14.38;;;9.15;;
10617;SDS011;5356;43.526;26.534;2023-02-01T05:12:42;16.77;;;7.97;;
10617;SDS011;5356;43.526;26.534;2023-02-01T05:15:29;11.50;;;6.13;;
10617;SDS011;5356;43.526;26.534;2023-02-01T05:17:56;13.60;;;6.85;;
10617;SDS011;5356;43.526;26.534;2023-02-01T05:20:22;12.45;;;6.65;;
10617;SDS011;5356;43.526;26.534;2023-02-01T05:22:47;11.98;;;6.05;;
10617;SDS011;5356;43.526;26.534;2023-02-01T05:25:13;8.50;;;6.13;;
10617;SDS011;5356;43.526;26.534;2023-02-01T05:27:38;14.13;;;6.68;;
10617;SDS011;5356;43.526;26.534;2023-02-01T05:30:04;14.88;;;10.90;;
10617;SDS011;5356;43.526;26.534;2023-02-01T05:32:30;21.25;;;13.73;;
10617;SDS011;5356;43.526;26.534;2023-02-01T05:34:56;11.20;;;6.05;;
10617;SDS011;5356;43.526;26.534;2023-02-01T05:37:22;15.52;;;6.68;;
10617;SDS011;5356;43.526;26.534;2023-02-01T05:39:47;15.32;;;7.07;;
10617;SDS011;5356;43.526;26.534;2023-02-01T05:42:13;13.10;;;6.60;;
10617;SDS011;5356;43.526;26.534;2023-02-01T05:44:38;20.10;;;14.13;;
10617;SDS011;5356;43.526;26.534;2023-02-01T05:47:04;28.33;;;18.13;;
10617;SDS011;5356;43.526;26.534;2023-02-01T05:49:29;15.50;;;10.45;;
10617;SDS011;5356;43.526;26.534;2023-02-01T05:51:55;8.50;;;5.63;;
10617;SDS011;5356;43.526;26.534;2023-02-01T05:54:20;8.38;;;5.20;;
10617;SDS011;5356;43.526;26.534;2023-02-01T05:56:46;10.20;;;5.22;;
10617;SDS011;5356;43.526;26.534;2023-02-01T05:59:11;9.98;;;4.93;;
10617;SDS011;5356;43.526;26.534;2023-02-01T06:01:36;11.93;;;5.57;;
10617;SDS011;5356;43.526;26.534;2023-02-01T06:04:02;11.52;;;5.60;;
10617;SDS011;5356;43.526;26.534;2023-02-01T06:06:28;12.60;;;8.73;;
10617;SDS011;5356;43.526;26.534;2023-02-01T06:08:53;14.07;;;9.18;;
10617;SDS011;5356;43.526;26.534;2023-02-01T06:11:19;12.05;;;7.00;;
10617;SDS011;5356;43.526;26.534;2023-02-01T06:13:44;9.20;;;5.38;;
10617;SDS011;5356;43.526;26.534;2023-02-01T06:16:09;9.07;;;5.50;;
10617;SDS011;5356;43.526;26.534;2023-02-01T06:18:35;6.15;;;3.97;;
10617;SDS011;5356;43.526;26.534;2023-02-01T06:21:00;5.65;;;3.75;;
10617;SDS011;5356;43.526;26.534;2023-02-01T06:23:27;9.02;;;4.63;;
10617;SDS011;5356;43.526;26.534;2023-02-01T06:26:01;9.77;;;7.80;;
10617;SDS011;5356;43.526;26.534;2023-02-01T06:28:32;8.65;;;5.95;;
10617;SDS011;5356;43.526;26.534;2023-02-01T06:31:02;7.50;;;4.28;;
10617;SDS011;5356;43.526;26.534;2023-02-01T06:33:31;8.05;;;3.78;;
10617;SDS011;5356;43.526;26.534;2023-02-01T06:35:58;6.78;;;3.92;;
10617;SDS011;5356;43.526;26.534;2023-02-01T06:38:25;8.98;;;4.32;;
10617;SDS011;5356;43.526;26.534;2023-02-01T06:40:54;8.70;;;5.57;;
10617;SDS011;5356;43.526;26.534;2023-02-01T06:43:24;11.57;;;7.65;;
10617;SDS011;5356;43.526;26.534;2023-02-01T06:45:51;16.58;;;7.18;;
10617;SDS011;5356;43.526;26.534;2023-02-01T06:48:17;10.52;;;4.90;;
10617;SDS011;5356;43.526;26.534;2023-02-01T06:50:43;7.60;;;4.75;;
10617;SDS011;5356;43.526;26.534;2023-02-01T06:53:09;9.13;;;4.70;;
10617;SDS011;5356;43.526;26.534;2023-02-01T06:55:34;9.23;;;4.90;;
10617;SDS011;5356;43.526;26.534;2023-02-01T06:58:00;9.60;;;4.15;;
10617;SDS011;5356;43.526;26.534;2023-02-01T07:00:27;10.18;;;6.18;;
10617;SDS011;5356;43.526;26.534;2023-02-01T07:02:53;8.32;;;4.20;;
10617;SDS011;5356;43.526;26.534;2023-02-01T07:05:19;5.22;;;3.83;;
10617;SDS011;5356;43.526;26.534;2023-02-01T07:07:44;5.72;;;4.35;;
10617;SDS011;5356;43.526;26.534;2023-02-01T07:10:10;7.55;;;5.35;;
10617;SDS011;5356;43.526;26.534;2023-02-01T07:12:36;7.95;;;5.15;;
10617;SDS011;5356;43.526;26.534;2023-02-01T07:15:02;8.07;;;5.00;;
10617;SDS011;5356;43.526;26.534;2023-02-01T07:17:28;10.13;;;4.95;;
10617;SDS011;5356;43.526;26.534;2023-02-01T07:19:55;8.18;;;3.70;;
10617;SDS011;5356;43.526;26.534;2023-02-01T07:22:21;8.90;;;4.18;;
10617;SDS011;5356;43.526;26.534;2023-02-01T07:24:47;8.20;;;3.95;;
10617;SDS011;5356;43.526;26.534;2023-02-01T07:27:12;9.45;;;5.85;;
10617;SDS011;5356;43.526;26.534;2023-02-01T07:29:38;9.93;;;4.93;;
10617;SDS011;5356;43.526;26.534;2023-02-01T07:32:03;12.23;;;4.95;;
10617;SDS011;5356;43.526;26.534;2023-02-01T07:34:29;8.77;;;5.00;;
10617;SDS011;5356;43.526;26.534;2023-02-01T07:36:56;13.95;;;7.03;;
10617;SDS011;5356;43.526;26.534;2023-02-01T07:39:21;10.50;;;5.35;;
10617;SDS011;5356;43.526;26.534;2023-02-01T07:41:47;10.82;;;5.63;;
10617;SDS011;5356;43.526;26.534;2023-02-01T07:44:12;8.13;;;4.40;;
10617;SDS011;5356;43.526;26.534;2023-02-01T07:46:38;10.30;;;4.45;;
10617;SDS011;5356;43.526;26.534;2023-02-01T07:49:04;7.35;;;4.07;;
10617;SDS011;5356;43.526;26.534;2023-02-01T07:51:30;6.35;;;4.10;;
10617;SDS011;5356;43.526;26.534;2023-02-01T07:53:56;12.32;;;5.75;;
10617;SDS011;5356;43.526;26.534;2023-02-01T07:56:21;8.77;;;3.45;;
10617;SDS011;5356;43.526;26.534;2023-02-01T07:58:51;9.73;;;4.55;;
10617;SDS011;5356;43.526;26.534;2023-02-01T08:01:21;8.43;;;4.03;;
10617;SDS011;5356;43.526;26.534;2023-02-01T08:06:17;8.80;;;4.68;;
10617;SDS011;5356;43.526;26.534;2023-02-01T08:08:44;6.57;;;3.53;;
10617;SDS011;5356;43.526;26.534;2023-02-01T08:11:11;6.05;;;4.15;;
10617;SDS011;5356;43.526;26.534;2023-02-01T08:13:37;9.45;;;4.32;;
10617;SDS011;5356;43.526;26.534;2023-02-01T08:16:04;7.70;;;3.70;;
10617;SDS011;5356;43.526;26.534;2023-02-01T08:18:31;7.03;;;4.80;;
10617;SDS011;5356;43.526;26.534;2023-02-01T08:21:01;6.55;;;4.32;;
10617;SDS011;5356;43.526;26.534;2023-02-01T08:23:38;6.40;;;4.20;;
10617;SDS011;5356;43.526;26.534;2023-02-01T08:26:06;7.93;;;4.68;;
10617;SDS011;5356;43.526;26.534;2023-02-01T08:28:37;5.95;;;3.90;;
10617;SDS011;5356;43.526;26.534;2023-02-01T08:31:04;4.30;;;3.38;;
10617;SDS011;5356;43.526;26.534;2023-02-01T08:33:31;6.50;;;3.80;;
10617;SDS011;5356;43.526;26.534;2023-02-01T08:35:56;9.77;;;4.45;;
10617;SDS011;5356;43.526;26.534;2023-02-01T08:38:21;6.10;;;3.55;;
10617;SDS011;5356;43.526;26.534;2023-02-01T08:40:47;8.93;;;4.03;;
10617;SDS011;5356;43.526;26.534;2023-02-01T08:43:12;9.38;;;4.45;;
10617;SDS011;5356;43.526;26.534;2023-02-01T08:45:39;8.45;;;3.78;;
10617;SDS011;5356;43.526;26.534;2023-02-01T08:48:04;8.80;;;3.70;;
10617;SDS011;5356;43.526;26.534;2023-02-01T08:50:30;5.82;;;3.97;;
10617;SDS011;5356;43.526;26.534;2023-02-01T08:52:55;6.82;;;3.75;;
10617;SDS011;5356;43.526;26.534;2023-02-01T08:55:21;7.20;;;3.70;;
10617;SDS011;5356;43.526;26.534;2023-02-01T08:57:46;6.63;;;3.78;;
10617;SDS011;5356;43.526;26.534;2023-02-01T09:00:14;7.78;;;4.10;;
10617;SDS011;5356;43.526;26.534;2023-02-01T09:02:41;5.85;;;3.58;;
10617;SDS011;5356;43.526;26.534;2023-02-01T09:05:07;7.30;;;3.58;;
10617;SDS011;5356;43.526;26.534;2023-02-01T09:07:33;6.40;;;3.78;;
10617;SDS011;5356;43.526;26.534;2023-02-01T09:09:59;6.05;;;3.33;;
10617;SDS011;5356;43.526;26.534;2023-02-01T09:12:29;6.50;;;3.60;;
10617;SDS011;5356;43.526;26.534;2023-02-01T09:14:56;6.90;;;3.53;;
10617;SDS011;5356;43.526;26.534;2023-02-01T09:17:24;7.28;;;3.40;;
10617;SDS011;5356;43.526;26.534;2023-02-01T09:19:51;13.88;;;6.18;;
10617;SDS011;5356;43.526;26.534;2023-02-01T09:22:16;10.38;;;5.53;;
10617;SDS011;5356;43.526;26.534;2023-02-01T09:24:42;8.90;;;4.22;;
10617;SDS011;5356;43.526;26.534;2023-02-01T09:27:07;4.15;;;2.95;;
10617;SDS011;5356;43.526;26.534;2023-02-01T09:29:33;4.57;;;2.92;;
10617;SDS011;5356;43.526;26.534;2023-02-01T09:31:58;9.60;;;4.15;;
10617;SDS011;5356;43.526;26.534;2023-02-01T09:34:24;7.18;;;4.65;;
10617;SDS011;5356;43.526;26.534;2023-02-01T09:36:49;5.82;;;3.65;;
10617;SDS011;5356;43.526;26.534;2023-02-01T09:39:16;4.93;;;3.20;;
10617;SDS011;5356;43.526;26.534;2023-02-01T09:41:48;8.30;;;4.57;;
10617;SDS011;5356;43.526;26.534;2023-02-01T09:45:09;4.90;;;2.97;;
10617;SDS011;5356;43.526;26.534;2023-02-01T09:47:19;4.63;;;2.80;;
10617;SDS011;5356;43.526;26.534;2023-02-01T09:50:09;6.10;;;3.58;;
10617;SDS011;5356;43.526;26.534;2023-02-01T09:52:56;4.55;;;3.20;;
10617;SDS011;5356;43.526;26.534;2023-02-01T09:58:52;4.38;;;2.92;;
10617;SDS011;5356;43.526;26.534;2023-02-01T10:03:53;5.65;;;3.47;;
10617;SDS011;5356;43.526;26.534;2023-02-01T10:25:23;6.20;;;3.80;;
10617;SDS011;5356;43.526;26.534;2023-02-01T10:27:53;7.50;;;3.88;;
10617;SDS011;5356;43.526;26.534;2023-02-01T10:30:24;6.10;;;3.20;;
10617;SDS011;5356;43.526;26.534;2023-02-01T10:32:57;7.03;;;3.88;;
10617;SDS011;5356;43.526;26.534;2023-02-01T10:35:37;5.97;;;3.65;;
10617;SDS011;5356;43.526;26.534;2023-02-01T10:38:04;5.47;;;3.47;;
10617;SDS011;5356;43.526;26.534;2023-02-01T10:40:41;7.88;;;4.93;;
10617;SDS011;5356;43.526;26.534;2023-02-01T10:43:07;5.95;;;4.30;;
10617;SDS011;5356;43.526;26.534;2023-02-01T10:45:34;6.60;;;3.20;;
10617;SDS011;5356;43.526;26.534;2023-02-01T10:48:02;6.18;;;3.92;;
10617;SDS011;5356;43.526;26.534;2023-02-01T10:53:12;7.53;;;4.60;;
10617;SDS011;5356;43.526;26.534;2023-02-01T10:55:41;5.20;;;3.53;;
10617;SDS011;5356;43.526;26.534;2023-02-01T10:58:30;5.25;;;2.72;;
10617;SDS011;5356;43.526;26.534;2023-02-01T11:00:59;7.43;;;3.97;;
10617;SDS011;5356;43.526;26.534;2023-02-01T11:03:32;6.60;;;4.18;;
10617;SDS011;5356;43.526;26.534;2023-02-01T11:06:02;6.65;;;3.88;;
10617;SDS011;5356;43.526;26.534;2023-02-01T11:08:41;8.00;;;4.47;;
10617;SDS011;5356;43.526;26.534;2023-02-01T11:11:09;4.47;;;2.97;;
10617;SDS011;5356;43.526;26.534;2023-02-01T11:13:36;6.82;;;3.42;;
10617;SDS011;5356;43.526;26.534;2023-02-01T11:16:03;5.72;;;4.68;;
10617;SDS011;5356;43.526;26.534;2023-02-01T11:18:31;7.38;;;4.80;;
10617;SDS011;5356;43.526;26.534;2023-02-01T11:21:00;4.82;;;3.28;;
10617;SDS011;5356;43.526;26.534;2023-02-01T11:23:27;4.90;;;3.60;;
10617;SDS011;5356;43.526;26.534;2023-02-01T11:25:59;5.72;;;3.97;;
10617;SDS011;5356;43.526;26.534;2023-02-01T11:28:30;4.10;;;2.75;;
10617;SDS011;5356;43.526;26.534;2023-02-01T11:31:04;5.45;;;3.17;;
10617;SDS011;5356;43.526;26.534;2023-02-01T11:33:34;2.83;;;2.13;;
10617;SDS011;5356;43.526;26.534;2023-02-01T11:36:16;5.47;;;3.72;;
10617;SDS011;5356;43.526;26.534;2023-02-01T11:38:51;5.70;;;3.78;;
10617;SDS011;5356;43.526;26.534;2023-02-01T11:46:23;6.03;;;2.85;;
10617;SDS011;5356;43.526;26.534;2023-02-01T11:48:53;4.88;;;3.97;;
10617;SDS011;5356;43.526;26.534;2023-02-01T11:57:27;5.57;;;3.90;;
10617;SDS011;5356;43.526;26.534;2023-02-01T12:38:32;4.40;;;3.03;;
10617;SDS011;5356;43.526;26.534;2023-02-01T12:41:17;4.68;;;2.78;;
10617;SDS011;5356;43.526;26.534;2023-02-01T12:44:01;3.05;;;2.22;;
10617;SDS011;5356;43.526;26.534;2023-02-01T12:51:40;5.47;;;3.75;;
10617;SDS011;5356;43.526;26.534;2023-02-01T12:54:55;4.93;;;3.15;;
10617;SDS011;5356;43.526;26.534;2023-02-01T12:57:30;6.63;;;4.30;;
10617;SDS011;5356;43.526;26.534;2023-02-01T13:05:20;4.70;;;3.22;;
10617;SDS011;5356;43.526;26.534;2023-02-01T13:08:12;6.30;;;3.33;;
10617;SDS011;5356;43.526;26.534;2023-02-01T13:10:43;6.57;;;3.83;;
10617;SDS011;5356;43.526;26.534;2023-02-01T13:15:44;5.55;;;3.67;;
10617;SDS011;5356;43.526;26.534;2023-02-01T13:18:14;5.35;;;3.70;;
10617;SDS011;5356;43.526;26.534;2023-02-01T13:23:23;5.55;;;4.10;;
10617;SDS011;5356;43.526;26.534;2023-02-01T13:25:56;9.48;;;5.28;;
10617;SDS011;5356;43.526;26.534;2023-02-01T13:37:34;5.65;;;3.53;;
10617;SDS011;5356;43.526;26.534;2023-02-01T13:42:24;6.07;;;2.60;;
10617;SDS011;5356;43.526;26.534;2023-02-01T13:44:57;7.43;;;4.18;;
10617;SDS011;5356;43.526;26.534;2023-02-01T13:49:54;12.77;;;7.25;;
10617;SDS011;5356;43.526;26.534;2023-02-01T13:52:25;12.57;;;6.15;;
10617;SDS011;5356;43.526;26.534;2023-02-01T13:57:46;7.07;;;3.75;;
10617;SDS011;5356;43.526;26.534;2023-02-01T14:13:41;9.57;;;4.03;;
10617;SDS011;5356;43.526;26.534;2023-02-01T14:21:18;9.05;;;4.97;;
10617;SDS011;5356;43.526;26.534;2023-02-01T14:28:46;6.70;;;3.50;;
10617;SDS011;5356;43.526;26.534;2023-02-01T14:34:02;3.87;;;2.87;;
10617;SDS011;5356;43.526;26.534;2023-02-01T14:36:41;4.15;;;2.55;;
10617;SDS011;5356;43.526;26.534;2023-02-01T14:39:20;6.22;;;2.33;;
10617;SDS011;5356;43.526;26.534;2023-02-01T14:41:52;6.57;;;2.50;;
10617;SDS011;5356;43.526;26.534;2023-02-01T14:44:25;8.70;;;3.70;;
10617;SDS011;5356;43.526;26.534;2023-02-01T14:49:38;7.35;;;3.28;;
10617;SDS011;5356;43.526;26.534;2023-02-01T14:52:14;5.43;;;3.55;;
10617;SDS011;5356;43.526;26.534;2023-02-01T14:54:45;9.02;;;3.17;;
10617;SDS011;5356;43.526;26.534;2023-02-01T14:57:19;6.50;;;4.03;;
10617;SDS011;5356;43.526;26.534;2023-02-01T14:59:49;6.75;;;3.22;;
10617;SDS011;5356;43.526;26.534;2023-02-01T15:02:23;7.60;;;3.88;;
10617;SDS011;5356;43.526;26.534;2023-02-01T15:04:54;10.50;;;5.38;;
10617;SDS011;5356;43.526;26.534;2023-02-01T15:07:22;9.00;;;4.10;;
10617;SDS011;5356;43.526;26.534;2023-02-01T15:09:51;15.23;;;5.65;;
10617;SDS011;5356;43.526;26.534;2023-02-01T15:12:19;16.50;;;7.35;;
10617;SDS011;5356;43.526;26.534;2023-02-01T15:17:38;11.45;;;4.93;;
10617;SDS011;5356;43.526;26.534;2023-02-01T15:22:42;6.32;;;3.65;;
10617;SDS011;5356;43.526;26.534;2023-02-01T15:25:24;7.35;;;3.90;;
10617;SDS011;5356;43.526;26.534;2023-02-01T15:27:53;12.13;;;6.03;;
10617;SDS011;5356;43.526;26.534;2023-02-01T15:30:21;10.98;;;5.45;;
10617;SDS011;5356;43.526;26.534;2023-02-01T15:32:47;9.32;;;4.32;;
10617;SDS011;5356;43.526;26.534;2023-02-01T15:41:07;55.03;;;26.30;;
10617;SDS011;5356;43.526;26.534;2023-02-01T15:43:42;19.83;;;10.52;;
10617;SDS011;5356;43.526;26.534;2023-02-01T15:46:15;9.27;;;5.57;;
10617;SDS011;5356;43.526;26.534;2023-02-01T15:49:18;9.30;;;6.40;;
10617;SDS011;5356;43.526;26.534;2023-02-01T15:51:48;10.73;;;6.28;;
10617;SDS011;5356;43.526;26.534;2023-02-01T15:54:16;9.38;;;6.95;;
10617;SDS011;5356;43.526;26.534;2023-02-01T15:56:49;10.80;;;5.97;;
10617;SDS011;5356;43.526;26.534;2023-02-01T15:59:19;13.43;;;6.30;;
10617;SDS011;5356;43.526;26.534;2023-02-01T16:01:48;16.05;;;6.45;;
10617;SDS011;5356;43.526;26.534;2023-02-01T16:06:44;12.23;;;6.75;;
10617;SDS011;5356;43.526;26.534;2023-02-01T16:09:13;15.63;;;7.05;;
10617;SDS011;5356;43.526;26.534;2023-02-01T16:11:56;13.00;;;6.18;;
10617;SDS011;5356;43.526;26.534;2023-02-01T16:14:24;14.95;;;7.75;;
10617;SDS011;5356;43.526;26.534;2023-02-01T16:16:50;14.05;;;8.70;;
10617;SDS011;5356;43.526;26.534;2023-02-01T16:19:16;12.00;;;7.10;;
10617;SDS011;5356;43.526;26.534;2023-02-01T16:21:42;12.65;;;7.50;;
10617;SDS011;5356;43.526;26.534;2023-02-01T16:24:08;20.15;;;9.70;;
10617;SDS011;5356;43.526;26.534;2023-02-01T16:26:33;19.92;;;10.98;;
10617;SDS011;5356;43.526;26.534;2023-02-01T16:28:59;21.77;;;10.95;;
10617;SDS011;5356;43.526;26.534;2023-02-01T16:31:31;20.50;;;11.30;;
10617;SDS011;5356;43.526;26.534;2023-02-01T16:33:59;19.98;;;9.07;;
10617;SDS011;5356;43.526;26.534;2023-02-01T16:36:25;15.70;;;7.38;;
10617;SDS011;5356;43.526;26.534;2023-02-01T16:38:53;15.13;;;8.15;;
10617;SDS011;5356;43.526;26.534;2023-02-01T16:41:19;10.38;;;6.53;;
10617;SDS011;5356;43.526;26.534;2023-02-01T16:43:49;13.80;;;7.03;;
10617;SDS011;5356;43.526;26.534;2023-02-01T16:46:17;10.95;;;5.90;;
10617;SDS011;5356;43.526;26.534;2023-02-01T16:48:55;12.60;;;6.83;;
10617;SDS011;5356;43.526;26.534;2023-02-01T16:51:23;12.30;;;6.97;;
10617;SDS011;5356;43.526;26.534;2023-02-01T16:53:50;12.73;;;6.07;;
10617;SDS011;5356;43.526;26.534;2023-02-01T16:56:20;11.10;;;6.47;;
10617;SDS011;5356;43.526;26.534;2023-02-01T16:58:51;14.95;;;6.32;;
10617;SDS011;5356;43.526;26.534;2023-02-01T17:01:18;12.98;;;7.32;;
10617;SDS011;5356;43.526;26.534;2023-02-01T17:03:44;10.75;;;6.20;;
10617;SDS011;5356;43.526;26.534;2023-02-01T17:06:11;12.77;;;7.03;;
10617;SDS011;5356;43.526;26.534;2023-02-01T17:08:42;12.25;;;7.15;;
10617;SDS011;5356;43.526;26.534;2023-02-01T17:11:15;24.10;;;10.33;;
10617;SDS011;5356;43.526;26.534;2023-02-01T17:13:40;25.13;;;9.90;;
10617;SDS011;5356;43.526;26.534;2023-02-01T17:18:50;27.05;;;12.43;;
10617;SDS011;5356;43.526;26.534;2023-02-01T17:21:20;17.65;;;11.05;;
10617;SDS011;5356;43.526;26.534;2023-02-01T17:23:45;38.47;;;16.27;;
10617;SDS011;5356;43.526;26.534;2023-02-01T17:26:11;32.83;;;16.88;;
10617;SDS011;5356;43.526;26.534;2023-02-01T17:28:36;28.30;;;16.67;;
10617;SDS011;5356;43.526;26.534;2023-02-01T17:31:02;35.25;;;16.63;;
10617;SDS011;5356;43.526;26.534;2023-02-01T17:33:33;37.03;;;18.65;;
10617;SDS011;5356;43.526;26.534;2023-02-01T17:36:00;40.50;;;17.80;;
10617;SDS011;5356;43.526;26.534;2023-02-01T17:38:26;34.15;;;16.67;;
10617;SDS011;5356;43.526;26.534;2023-02-01T17:40:52;44.60;;;22.20;;
10617;SDS011;5356;43.526;26.534;2023-02-01T17:43:19;32.53;;;16.35;;
10617;SDS011;5356;43.526;26.534;2023-02-01T17:45:54;18.08;;;11.45;;
10617;SDS011;5356;43.526;26.534;2023-02-01T17:48:26;22.20;;;11.40;;
10617;SDS011;5356;43.526;26.534;2023-02-01T17:50:51;26.25;;;14.45;;
10617;SDS011;5356;43.526;26.534;2023-02-01T17:53:22;26.92;;;14.90;;
10617;SDS011;5356;43.526;26.534;2023-02-01T17:55:49;20.98;;;11.55;;
10617;SDS011;5356;43.526;26.534;2023-02-01T17:58:16;22.85;;;12.95;;